createdAt,value
2016-12-15T00:00:14.519Z,0
2016-12-15T00:01:23.240Z,0
2016-12-15T00:02:31.919Z,0
2016-12-15T00:03:40.603Z,0
2016-12-15T00:04:49.284Z,0
2016-12-15T00:05:57.966Z,0
2016-12-15T00:07:06.651Z,0
2016-12-15T00:08:15.328Z,0
2016-12-15T00:09:24.038Z,0
2016-12-15T00:10:32.720Z,0
2016-12-15T00:11:41.405Z,0
2016-12-15T00:12:50.088Z,0
2016-12-15T00:13:58.770Z,0
2016-12-15T00:15:07.467Z,0
2016-12-15T00:16:16.171Z,0
2016-12-15T00:17:24.852Z,0
2016-12-15T00:18:33.532Z,0
2016-12-15T00:19:42.213Z,0
2016-12-15T00:20:50.901Z,0
2016-12-15T00:21:59.582Z,0
2016-12-15T00:23:08.258Z,0
2016-12-15T00:24:16.944Z,0
2016-12-15T00:25:25.626Z,0
2016-12-15T00:26:34.321Z,0
2016-12-15T00:27:43.005Z,0
2016-12-15T00:28:51.682Z,0
2016-12-15T00:30:00.366Z,0
2016-12-15T00:31:09.075Z,0
2016-12-15T00:32:17.754Z,0
2016-12-15T00:33:26.432Z,0
2016-12-15T00:34:35.109Z,0
2016-12-15T00:35:43.790Z,0
2016-12-15T00:36:52.471Z,0
2016-12-15T00:38:01.159Z,0
2016-12-15T00:39:09.841Z,0
2016-12-15T00:40:18.524Z,0
2016-12-15T00:41:27.202Z,0
2016-12-15T00:42:35.886Z,0
2016-12-15T00:43:44.596Z,0
2016-12-15T00:44:53.277Z,0
2016-12-15T00:46:01.958Z,0
2016-12-15T00:47:10.646Z,0
2016-12-15T00:48:19.327Z,0
2016-12-15T00:49:28.007Z,0
2016-12-15T00:50:36.687Z,0
2016-12-15T00:51:45.366Z,0
2016-12-15T00:52:54.053Z,0
2016-12-15T00:54:02.745Z,0
2016-12-15T00:55:11.426Z,0
2016-12-15T00:56:20.110Z,0
2016-12-15T00:57:28.791Z,0
2016-12-15T00:58:37.470Z,0
2016-12-15T00:59:46.160Z,0
2016-12-15T01:00:55.164Z,0
2016-12-15T01:02:03.847Z,0
2016-12-15T01:03:12.528Z,0
2016-12-15T01:04:21.212Z,0
2016-12-15T01:05:29.918Z,0
2016-12-15T01:06:38.598Z,0
2016-12-15T01:07:47.276Z,0
2016-12-15T01:08:55.966Z,0
2016-12-15T01:10:04.649Z,0
2016-12-15T01:11:13.331Z,0
2016-12-15T01:12:22.017Z,0
2016-12-15T01:13:30.728Z,0
2016-12-15T01:14:39.420Z,0
2016-12-15T01:15:48.114Z,0
2016-12-15T01:16:56.800Z,0
2016-12-15T01:18:05.517Z,0
2016-12-15T01:19:14.196Z,0
2016-12-15T01:20:22.886Z,0
2016-12-15T01:21:31.572Z,0
2016-12-15T01:22:40.249Z,0
2016-12-15T01:23:48.934Z,0
2016-12-15T01:24:57.642Z,0
2016-12-15T01:26:06.328Z,0
2016-12-15T01:27:15.013Z,0
2016-12-15T01:28:23.738Z,0
2016-12-15T01:29:32.420Z,0
2016-12-15T01:30:41.099Z,0
2016-12-15T01:31:49.813Z,0
2016-12-15T01:32:58.495Z,0
2016-12-15T01:34:07.183Z,0
2016-12-15T01:35:15.861Z,0
2016-12-15T01:36:24.542Z,0
2016-12-15T01:37:33.224Z,0
2016-12-15T01:38:41.907Z,0
2016-12-15T01:39:50.587Z,0
2016-12-15T01:40:59.266Z,0
2016-12-15T01:42:07.948Z,0
2016-12-15T01:43:16.639Z,0
2016-12-15T01:44:25.321Z,0
2016-12-15T01:45:34.032Z,0
2016-12-15T01:46:42.715Z,0
2016-12-15T01:47:51.403Z,0
2016-12-15T01:49:00.091Z,0
2016-12-15T01:50:09.113Z,0
2016-12-15T01:51:17.794Z,0
2016-12-15T01:52:26.482Z,0
2016-12-15T01:53:35.171Z,0
2016-12-15T01:54:43.853Z,0
2016-12-15T01:55:52.543Z,0
2016-12-15T01:57:01.229Z,0
2016-12-15T01:58:09.913Z,0
2016-12-15T01:59:18.915Z,0
2016-12-15T02:00:27.596Z,0
2016-12-15T02:01:36.278Z,0
2016-12-15T02:02:44.964Z,0
2016-12-15T02:03:53.648Z,0
2016-12-15T02:05:02.332Z,0
2016-12-15T02:06:11.012Z,0
2016-12-15T02:07:19.700Z,0
2016-12-15T02:08:28.378Z,0
2016-12-15T02:09:37.063Z,0
2016-12-15T02:10:45.740Z,0
2016-12-15T02:11:54.428Z,0
2016-12-15T02:13:03.141Z,0
2016-12-15T02:14:11.826Z,0
2016-12-15T02:15:20.506Z,0
2016-12-15T02:16:29.215Z,0
2016-12-15T02:17:37.894Z,0
2016-12-15T02:18:46.577Z,0
2016-12-15T02:19:55.287Z,0
2016-12-15T02:21:03.969Z,0
2016-12-15T02:22:12.652Z,0
2016-12-15T02:23:21.329Z,0
2016-12-15T02:24:30.008Z,0
2016-12-15T02:25:38.688Z,0
2016-12-15T02:26:47.373Z,0
2016-12-15T02:27:56.067Z,0
2016-12-15T02:29:04.798Z,0
2016-12-15T02:30:13.476Z,0
2016-12-15T02:31:22.167Z,0
2016-12-15T02:32:30.851Z,0
2016-12-15T02:33:39.540Z,0
2016-12-15T02:34:48.222Z,0
2016-12-15T02:35:56.901Z,0
2016-12-15T02:37:05.589Z,0
2016-12-15T02:38:14.271Z,0
2016-12-15T02:39:22.953Z,0
2016-12-15T02:40:31.641Z,0
2016-12-15T02:41:40.322Z,0
2016-12-15T02:42:49.004Z,0
2016-12-15T02:43:57.688Z,0
2016-12-15T02:45:06.368Z,0
2016-12-15T02:46:15.049Z,0
2016-12-15T02:47:23.730Z,0
2016-12-15T02:48:32.417Z,0
2016-12-15T02:49:41.105Z,0
2016-12-15T02:50:49.824Z,0
2016-12-15T02:51:58.510Z,0
2016-12-15T02:53:07.197Z,0
2016-12-15T02:54:15.878Z,0
2016-12-15T02:55:24.570Z,0
2016-12-15T02:56:33.256Z,0
2016-12-15T02:57:41.935Z,0
2016-12-15T02:58:50.639Z,0
2016-12-15T02:59:59.316Z,0
2016-12-15T03:01:08.000Z,0
2016-12-15T03:02:16.689Z,0
2016-12-15T03:03:25.367Z,0
2016-12-15T03:04:34.047Z,0
2016-12-15T03:05:42.730Z,0
2016-12-15T03:06:51.412Z,0
2016-12-15T03:08:00.095Z,0
2016-12-15T03:09:08.788Z,0
2016-12-15T03:10:17.469Z,0
2016-12-15T03:11:26.146Z,0
2016-12-15T03:12:34.825Z,0
2016-12-15T03:13:43.508Z,0
2016-12-15T03:14:52.196Z,0
2016-12-15T03:16:00.873Z,0
2016-12-15T03:17:09.553Z,0
2016-12-15T03:18:18.230Z,0
2016-12-15T03:19:26.920Z,0
2016-12-15T03:20:35.606Z,0
2016-12-15T03:21:44.287Z,0
2016-12-15T03:22:52.972Z,0
2016-12-15T03:24:01.652Z,0
2016-12-15T03:25:10.337Z,0
2016-12-15T03:26:19.015Z,0
2016-12-15T03:27:27.695Z,0
2016-12-15T03:28:36.377Z,0
2016-12-15T03:29:45.063Z,0
2016-12-15T03:30:53.749Z,0
2016-12-15T03:32:02.431Z,0
2016-12-15T03:33:11.111Z,0
2016-12-15T03:34:19.789Z,0
2016-12-15T03:35:28.469Z,0
2016-12-15T03:36:37.463Z,0
2016-12-15T03:37:46.146Z,0
2016-12-15T03:38:54.854Z,0
2016-12-15T03:40:03.538Z,0
2016-12-15T03:41:12.217Z,0
2016-12-15T03:42:20.902Z,0
2016-12-15T03:43:29.582Z,0
2016-12-15T03:44:38.261Z,0
2016-12-15T03:45:46.940Z,0
2016-12-15T03:46:55.625Z,0
2016-12-15T03:48:04.301Z,0
2016-12-15T03:49:12.983Z,0
2016-12-15T03:50:21.668Z,0
2016-12-15T03:51:30.349Z,0
2016-12-15T03:52:39.038Z,0
2016-12-15T03:53:47.717Z,0
2016-12-15T03:54:56.399Z,0
2016-12-15T03:56:05.082Z,0
2016-12-15T03:57:13.767Z,0
2016-12-15T03:58:22.454Z,0
2016-12-15T03:59:31.132Z,0
2016-12-15T04:00:39.861Z,0
2016-12-15T04:01:48.542Z,0
2016-12-15T04:02:57.219Z,0
2016-12-15T04:04:05.902Z,0
2016-12-15T04:05:14.598Z,0
2016-12-15T04:06:23.282Z,0
2016-12-15T04:07:31.962Z,0
2016-12-15T04:08:40.642Z,0
2016-12-15T04:09:49.332Z,0
2016-12-15T04:10:58.014Z,0
2016-12-15T04:12:06.701Z,0
2016-12-15T04:13:15.385Z,0
2016-12-15T04:14:24.068Z,0
2016-12-15T04:15:32.760Z,0
2016-12-15T04:16:41.755Z,0
2016-12-15T04:17:50.440Z,0
2016-12-15T04:18:59.121Z,0
2016-12-15T04:20:07.803Z,0
2016-12-15T04:21:16.483Z,0
2016-12-15T04:22:25.172Z,0
2016-12-15T04:23:33.881Z,0
2016-12-15T04:24:42.562Z,0
2016-12-15T04:25:51.244Z,0
2016-12-15T04:26:59.925Z,0
2016-12-15T04:28:08.612Z,0
2016-12-15T04:29:17.294Z,0
2016-12-15T04:30:26.286Z,0
2016-12-15T04:31:34.995Z,0
2016-12-15T04:32:43.682Z,0
2016-12-15T04:33:52.366Z,0
2016-12-15T04:35:01.378Z,0
2016-12-15T04:36:10.089Z,0
2016-12-15T04:37:18.765Z,0
2016-12-15T04:38:27.459Z,0
2016-12-15T04:39:36.139Z,0
2016-12-15T04:40:44.817Z,0
2016-12-15T04:41:53.497Z,0
2016-12-15T04:43:02.201Z,0
2016-12-15T04:44:10.887Z,0
2016-12-15T04:45:19.566Z,0
2016-12-15T04:46:28.248Z,0
2016-12-15T04:47:36.927Z,0
2016-12-15T04:48:45.609Z,0
2016-12-15T04:49:54.286Z,0
2016-12-15T04:51:03.281Z,0
2016-12-15T04:52:11.961Z,0
2016-12-15T04:53:20.637Z,0
2016-12-15T04:54:29.627Z,0
2016-12-15T04:55:38.313Z,0
2016-12-15T04:56:47.016Z,0
2016-12-15T04:57:55.693Z,0
2016-12-15T04:59:04.399Z,0
2016-12-15T05:00:13.081Z,0
2016-12-15T05:01:21.762Z,0
2016-12-15T05:02:30.470Z,0
2016-12-15T05:03:39.500Z,0
2016-12-15T05:04:48.183Z,0
2016-12-15T05:05:56.864Z,0
2016-12-15T05:07:05.545Z,0
2016-12-15T05:08:14.227Z,0
2016-12-15T05:09:22.911Z,0
2016-12-15T05:10:31.611Z,0
2016-12-15T05:11:40.287Z,0
2016-12-15T05:12:48.969Z,0
2016-12-15T05:13:57.681Z,0
2016-12-15T05:15:06.403Z,0
2016-12-15T05:16:15.083Z,0
2016-12-15T05:17:23.760Z,0
2016-12-15T05:18:32.463Z,0
2016-12-15T05:19:41.145Z,0
2016-12-15T05:20:49.825Z,0
2016-12-15T05:21:58.503Z,0
2016-12-15T05:23:07.493Z,0
2016-12-15T05:24:16.172Z,0
2016-12-15T05:25:24.853Z,0
2016-12-15T05:26:33.527Z,0
2016-12-15T05:27:42.205Z,0
2016-12-15T05:28:50.884Z,0
2016-12-15T05:29:59.564Z,0
2016-12-15T05:31:08.244Z,0
2016-12-15T05:32:16.934Z,0
2016-12-15T05:33:25.618Z,0
2016-12-15T05:34:34.293Z,0
2016-12-15T05:35:42.976Z,0
2016-12-15T05:36:51.655Z,0
2016-12-15T05:38:00.342Z,0
2016-12-15T05:39:09.028Z,0
2016-12-15T05:40:17.714Z,0
2016-12-15T05:41:26.398Z,0
2016-12-15T05:42:35.101Z,0
2016-12-15T05:43:43.786Z,0
2016-12-15T05:44:52.463Z,0
2016-12-15T05:46:01.143Z,0
2016-12-15T05:47:10.135Z,0
2016-12-15T05:48:18.815Z,0
2016-12-15T05:49:27.491Z,0
2016-12-15T05:50:36.172Z,0
2016-12-15T05:51:44.849Z,0
2016-12-15T05:52:53.532Z,0
2016-12-15T05:54:02.211Z,0
2016-12-15T05:55:10.897Z,0
2016-12-15T05:56:19.577Z,0
2016-12-15T05:57:28.267Z,0
2016-12-15T05:58:36.976Z,0
2016-12-15T05:59:45.657Z,0
2016-12-15T06:00:54.341Z,0
2016-12-15T06:02:03.047Z,0
2016-12-15T06:03:11.726Z,0
2016-12-15T06:04:20.407Z,0
2016-12-15T06:05:29.094Z,0
2016-12-15T06:06:37.780Z,0
2016-12-15T06:07:46.464Z,0
2016-12-15T06:08:55.140Z,0
2016-12-15T06:10:03.820Z,0
2016-12-15T06:11:12.503Z,0
2016-12-15T06:12:21.193Z,0
2016-12-15T06:13:29.873Z,0
2016-12-15T06:14:38.558Z,0
2016-12-15T06:15:47.238Z,0
2016-12-15T06:16:55.920Z,0
2016-12-15T06:18:04.599Z,0
2016-12-15T06:19:13.280Z,0
2016-12-15T06:20:21.962Z,0
2016-12-15T06:21:30.643Z,0
2016-12-15T06:22:39.324Z,0
2016-12-15T06:23:48.011Z,0
2016-12-15T06:24:56.691Z,0
2016-12-15T06:26:05.374Z,0
2016-12-15T06:27:14.057Z,0
2016-12-15T06:28:22.743Z,0
2016-12-15T06:29:31.452Z,0
2016-12-15T06:30:40.135Z,0
2016-12-15T06:31:48.816Z,0
2016-12-15T06:32:57.496Z,0
2016-12-15T06:34:06.175Z,0
2016-12-15T06:35:14.855Z,0
2016-12-15T06:36:23.540Z,0
2016-12-15T06:37:32.224Z,0
2016-12-15T06:38:40.901Z,0
2016-12-15T06:39:49.585Z,0
2016-12-15T06:40:58.274Z,0
2016-12-15T06:42:06.958Z,0
2016-12-15T06:43:15.638Z,0
2016-12-15T06:44:24.319Z,0
2016-12-15T06:45:32.999Z,0
2016-12-15T06:46:41.999Z,0
2016-12-15T06:47:50.684Z,0
2016-12-15T06:48:59.365Z,0
2016-12-15T06:50:08.102Z,0
2016-12-15T06:51:16.795Z,0
2016-12-15T06:52:25.477Z,0
2016-12-15T06:53:34.155Z,0
2016-12-15T06:54:42.833Z,0
2016-12-15T06:55:51.513Z,0
2016-12-15T06:57:00.192Z,0
2016-12-15T06:58:08.873Z,0
2016-12-15T06:59:17.559Z,0
2016-12-15T07:00:26.263Z,0
2016-12-15T07:01:34.947Z,0
2016-12-15T07:02:43.626Z,0
2016-12-15T07:03:52.311Z,0
2016-12-15T07:05:00.997Z,0
2016-12-15T07:06:09.679Z,0
2016-12-15T07:07:18.357Z,0
2016-12-15T07:08:27.046Z,0
2016-12-15T07:09:35.750Z,0
2016-12-15T07:10:44.428Z,0
2016-12-15T07:11:53.111Z,0
2016-12-15T07:13:01.807Z,0
2016-12-15T07:14:10.492Z,0
2016-12-15T07:15:19.323Z,0
2016-12-15T07:16:28.004Z,0
2016-12-15T07:17:36.688Z,0
2016-12-15T07:18:45.395Z,0
2016-12-15T07:19:54.076Z,0
2016-12-15T07:21:02.759Z,0
2016-12-15T07:22:11.437Z,0
2016-12-15T07:23:20.118Z,0
2016-12-15T07:24:28.797Z,0
2016-12-15T07:25:37.476Z,0
2016-12-15T07:26:46.470Z,0
2016-12-15T07:27:55.151Z,0
2016-12-15T07:29:03.838Z,0
2016-12-15T07:30:14.246Z,0
2016-12-15T07:31:22.922Z,0
2016-12-15T07:32:31.610Z,0
2016-12-15T07:33:40.290Z,0
2016-12-15T07:34:48.971Z,0
2016-12-15T07:35:57.647Z,0
2016-12-15T07:37:06.330Z,0
2016-12-15T07:38:15.008Z,0
2016-12-15T07:39:23.689Z,0
2016-12-15T07:40:32.371Z,0
2016-12-15T07:41:41.053Z,0
2016-12-15T07:42:49.740Z,0
2016-12-15T07:43:58.416Z,0
2016-12-15T07:45:07.105Z,0
2016-12-15T07:46:15.790Z,0
2016-12-15T07:47:24.467Z,0
2016-12-15T07:48:33.143Z,0
2016-12-15T07:49:41.821Z,0
2016-12-15T07:50:50.505Z,0
2016-12-15T07:51:59.185Z,0
2016-12-15T07:53:07.863Z,0
2016-12-15T07:54:16.544Z,0
2016-12-15T07:55:25.229Z,0
2016-12-15T07:56:33.909Z,5
2016-12-15T07:57:42.591Z,5
2016-12-15T07:58:51.585Z,5
2016-12-15T08:00:00.266Z,5
2016-12-15T08:01:08.951Z,5
2016-12-15T08:02:17.946Z,5
2016-12-15T08:03:26.634Z,5
2016-12-15T08:04:35.322Z,5
2016-12-15T08:05:44.002Z,10
2016-12-15T08:06:52.686Z,10
2016-12-15T08:08:01.375Z,10
2016-12-15T08:09:10.060Z,10
2016-12-15T08:10:18.750Z,10
2016-12-15T08:11:27.433Z,10
2016-12-15T08:12:36.111Z,10
2016-12-15T08:13:44.795Z,10
2016-12-15T08:14:53.475Z,15
2016-12-15T08:16:02.159Z,15
2016-12-15T08:17:10.842Z,15
2016-12-15T08:18:19.527Z,15
2016-12-15T08:19:28.206Z,15
2016-12-15T08:20:36.888Z,15
2016-12-15T08:21:45.573Z,15
2016-12-15T08:22:54.254Z,15
2016-12-15T08:24:02.964Z,20
2016-12-15T08:25:11.649Z,20
2016-12-15T08:26:20.331Z,20
2016-12-15T08:27:29.007Z,20
2016-12-15T08:28:37.692Z,20
2016-12-15T08:29:46.533Z,20
2016-12-15T08:30:55.224Z,20
2016-12-15T08:32:03.969Z,25
2016-12-15T08:33:12.659Z,25
2016-12-15T08:34:21.344Z,25
2016-12-15T08:35:30.086Z,25
2016-12-15T08:36:38.767Z,25
2016-12-15T08:37:47.446Z,25
2016-12-15T08:38:56.140Z,25
2016-12-15T08:40:04.824Z,25
2016-12-15T08:41:13.508Z,25
2016-12-15T08:42:22.190Z,30
2016-12-15T08:43:30.874Z,30
2016-12-15T08:44:39.562Z,30
2016-12-15T08:45:48.273Z,30
2016-12-15T08:46:56.955Z,30
2016-12-15T08:48:05.649Z,30
2016-12-15T08:49:14.333Z,30
2016-12-15T08:50:23.013Z,30
2016-12-15T08:51:31.692Z,35
2016-12-15T08:52:40.375Z,35
2016-12-15T08:53:49.059Z,35
2016-12-15T08:54:57.745Z,40
2016-12-15T08:56:06.428Z,40
2016-12-15T08:57:15.107Z,40
2016-12-15T08:58:23.791Z,40
2016-12-15T08:59:32.586Z,40
2016-12-15T09:00:41.266Z,40
2016-12-15T09:01:49.945Z,40
2016-12-15T09:02:58.632Z,40
2016-12-15T09:04:07.315Z,40
2016-12-15T09:05:16.022Z,40
2016-12-15T09:06:24.699Z,40
2016-12-15T09:07:33.384Z,40
2016-12-15T09:08:42.072Z,45
2016-12-15T09:09:50.755Z,45
2016-12-15T09:10:59.440Z,45
2016-12-15T09:12:08.121Z,45
2016-12-15T09:13:16.804Z,50
2016-12-15T09:14:25.486Z,50
2016-12-15T09:15:34.182Z,45
2016-12-15T09:16:42.863Z,50
2016-12-15T09:17:51.562Z,45
2016-12-15T09:19:00.561Z,50
2016-12-15T09:20:09.251Z,50
2016-12-15T09:21:17.930Z,50
2016-12-15T09:22:26.612Z,50
2016-12-15T09:23:35.315Z,50
2016-12-15T09:24:44.008Z,50
2016-12-15T09:25:52.689Z,50
2016-12-15T09:27:01.375Z,50
2016-12-15T09:28:10.061Z,55
2016-12-15T09:29:18.746Z,55
2016-12-15T09:30:27.431Z,55
2016-12-15T09:31:36.119Z,55
2016-12-15T09:32:44.805Z,60
2016-12-15T09:33:53.483Z,60
2016-12-15T09:35:02.166Z,60
2016-12-15T09:36:10.858Z,60
2016-12-15T09:37:19.540Z,60
2016-12-15T09:38:28.220Z,60
2016-12-15T09:39:36.899Z,60
2016-12-15T09:40:45.598Z,65
2016-12-15T09:41:54.280Z,65
2016-12-15T09:43:02.984Z,70
2016-12-15T09:44:11.665Z,70
2016-12-15T09:45:20.354Z,70
2016-12-15T09:46:29.380Z,75
2016-12-15T09:47:38.059Z,80
2016-12-15T09:48:46.738Z,80
2016-12-15T09:49:55.419Z,85
2016-12-15T09:51:04.101Z,90
2016-12-15T09:52:12.787Z,90
2016-12-15T09:53:21.473Z,95
2016-12-15T09:54:30.155Z,100
2016-12-15T09:55:38.838Z,100
2016-12-15T09:56:47.524Z,100
2016-12-15T09:57:56.219Z,100
2016-12-15T09:59:04.905Z,105
2016-12-15T10:00:13.597Z,105
2016-12-15T10:01:22.285Z,110
2016-12-15T10:02:30.968Z,110
2016-12-15T10:03:39.648Z,115
2016-12-15T10:04:48.328Z,115
2016-12-15T10:05:57.014Z,115
2016-12-15T10:07:05.700Z,115
2016-12-15T10:08:14.382Z,115
2016-12-15T10:09:23.064Z,115
2016-12-15T10:10:31.755Z,115
2016-12-15T10:11:40.752Z,115
2016-12-15T10:12:49.436Z,115
2016-12-15T10:13:58.122Z,115
2016-12-15T10:15:06.813Z,120
2016-12-15T10:16:15.499Z,125
2016-12-15T10:17:24.181Z,125
2016-12-15T10:18:32.866Z,130
2016-12-15T10:19:41.551Z,130
2016-12-15T10:20:50.246Z,135
2016-12-15T10:21:58.932Z,135
2016-12-15T10:23:07.625Z,140
2016-12-15T10:24:16.306Z,140
2016-12-15T10:25:24.999Z,140
2016-12-15T10:26:33.678Z,140
2016-12-15T10:27:42.360Z,140
2016-12-15T10:28:51.049Z,140
2016-12-15T10:29:59.728Z,145
2016-12-15T10:31:08.725Z,145
2016-12-15T10:32:17.412Z,155
2016-12-15T10:33:26.092Z,155
2016-12-15T10:34:34.779Z,145
2016-12-15T10:35:43.463Z,145
2016-12-15T10:36:52.150Z,145
2016-12-15T10:38:00.840Z,150
2016-12-15T10:39:09.837Z,145
2016-12-15T10:40:18.543Z,155
2016-12-15T10:41:27.227Z,155
2016-12-15T10:42:35.911Z,150
2016-12-15T10:43:44.596Z,145
2016-12-15T10:44:53.284Z,145
2016-12-15T10:46:01.969Z,150
2016-12-15T10:47:10.653Z,160
2016-12-15T10:48:19.339Z,155
2016-12-15T10:49:28.023Z,155
2016-12-15T10:50:36.708Z,150
2016-12-15T10:51:45.399Z,170
2016-12-15T10:52:54.086Z,170
2016-12-15T10:54:02.770Z,175
2016-12-15T10:55:11.452Z,175
2016-12-15T10:56:20.134Z,175
2016-12-15T10:57:28.819Z,165
2016-12-15T10:58:37.500Z,160
2016-12-15T10:59:46.189Z,150
2016-12-15T11:00:54.875Z,150
2016-12-15T11:02:03.556Z,160
2016-12-15T11:03:12.240Z,165
2016-12-15T11:04:20.921Z,170
2016-12-15T11:05:29.609Z,165
2016-12-15T11:06:38.293Z,155
2016-12-15T11:07:46.980Z,155
2016-12-15T11:08:55.992Z,155
2016-12-15T11:10:04.680Z,155
2016-12-15T11:11:13.363Z,165
2016-12-15T11:12:22.049Z,170
2016-12-15T11:13:30.731Z,180
2016-12-15T11:14:39.413Z,195
2016-12-15T11:15:48.099Z,185
2016-12-15T11:16:56.784Z,170
2016-12-15T11:18:05.472Z,175
2016-12-15T11:19:14.153Z,175
2016-12-15T11:20:22.836Z,155
2016-12-15T11:21:31.531Z,140
2016-12-15T11:22:40.529Z,135
2016-12-15T11:23:49.213Z,125
2016-12-15T11:24:57.915Z,125
2016-12-15T11:26:06.598Z,120
2016-12-15T11:27:15.283Z,120
2016-12-15T11:28:23.965Z,120
2016-12-15T11:29:32.656Z,120
2016-12-15T11:30:41.340Z,120
2016-12-15T11:31:50.026Z,115
2016-12-15T11:32:58.718Z,115
2016-12-15T11:34:07.407Z,115
2016-12-15T11:35:16.089Z,110
2016-12-15T11:36:24.770Z,110
2016-12-15T11:37:33.454Z,105
2016-12-15T11:38:42.154Z,105
2016-12-15T11:39:50.841Z,100
2016-12-15T11:40:59.527Z,100
2016-12-15T11:42:08.214Z,95
2016-12-15T11:43:16.897Z,95
2016-12-15T11:44:25.610Z,95
2016-12-15T11:45:34.293Z,90
2016-12-15T11:46:42.975Z,90
2016-12-15T11:47:51.658Z,95
2016-12-15T11:49:00.352Z,95
2016-12-15T11:50:09.034Z,95
2016-12-15T11:51:17.722Z,95
2016-12-15T11:52:26.407Z,95
2016-12-15T11:53:35.094Z,100
2016-12-15T11:54:43.778Z,100
2016-12-15T11:55:52.457Z,105
2016-12-15T11:57:01.138Z,105
2016-12-15T11:58:09.821Z,105
2016-12-15T11:59:18.513Z,105
2016-12-15T12:00:27.193Z,105
2016-12-15T12:01:35.874Z,105
2016-12-15T12:02:44.579Z,115
2016-12-15T12:03:53.264Z,120
2016-12-15T12:05:01.955Z,120
2016-12-15T12:06:10.635Z,120
2016-12-15T12:07:19.323Z,120
2016-12-15T12:08:28.013Z,130
2016-12-15T12:09:36.696Z,135
2016-12-15T12:10:45.390Z,125
2016-12-15T12:11:54.071Z,120
2016-12-15T12:13:02.756Z,125
2016-12-15T12:14:11.439Z,125
2016-12-15T12:15:20.117Z,120
2016-12-15T12:16:28.803Z,105
2016-12-15T12:17:37.487Z,100
2016-12-15T12:18:46.173Z,95
2016-12-15T12:19:54.854Z,90
2016-12-15T12:21:03.539Z,90
2016-12-15T12:22:12.223Z,85
2016-12-15T12:23:20.900Z,80
2016-12-15T12:24:29.661Z,80
2016-12-15T12:25:38.342Z,85
2016-12-15T12:26:47.021Z,85
2016-12-15T12:27:56.025Z,85
2016-12-15T12:29:04.708Z,85
2016-12-15T12:30:13.391Z,85
2016-12-15T12:31:22.076Z,85
2016-12-15T12:32:30.764Z,85
2016-12-15T12:33:39.446Z,80
2016-12-15T12:34:48.128Z,85
2016-12-15T12:35:56.803Z,85
2016-12-15T12:37:05.483Z,90
2016-12-15T12:38:14.164Z,95
2016-12-15T12:39:23.175Z,95
2016-12-15T12:40:31.855Z,100
2016-12-15T12:41:40.544Z,100
2016-12-15T12:42:49.232Z,105
2016-12-15T12:43:57.913Z,110
2016-12-15T12:45:06.600Z,110
2016-12-15T12:46:15.305Z,115
2016-12-15T12:47:23.989Z,110
2016-12-15T12:48:33.040Z,105
2016-12-15T12:49:41.721Z,105
2016-12-15T12:50:50.415Z,100
2016-12-15T12:51:59.098Z,95
2016-12-15T12:53:07.778Z,95
2016-12-15T12:54:16.463Z,95
2016-12-15T12:55:25.148Z,95
2016-12-15T12:56:33.848Z,90
2016-12-15T12:57:42.535Z,90
2016-12-15T12:58:51.223Z,90
2016-12-15T12:59:59.949Z,90
2016-12-15T13:01:08.951Z,80
2016-12-15T13:02:17.634Z,75
2016-12-15T13:03:26.321Z,75
2016-12-15T13:04:35.017Z,70
2016-12-15T13:05:44.033Z,60
2016-12-15T13:06:52.728Z,60
2016-12-15T13:08:01.418Z,60
2016-12-15T13:09:10.104Z,55
2016-12-15T13:10:18.789Z,55
2016-12-15T13:11:27.473Z,55
2016-12-15T13:12:36.157Z,55
2016-12-15T13:13:44.841Z,55
2016-12-15T13:14:53.526Z,55
2016-12-15T13:16:02.215Z,55
2016-12-15T13:17:10.910Z,50
2016-12-15T13:18:19.601Z,50
2016-12-15T13:19:28.282Z,50
2016-12-15T13:20:36.973Z,50
2016-12-15T13:21:45.655Z,50
2016-12-15T13:22:54.337Z,50
2016-12-15T13:24:03.023Z,45
2016-12-15T13:25:11.707Z,45
2016-12-15T13:26:20.388Z,45
2016-12-15T13:27:29.074Z,45
2016-12-15T13:28:37.756Z,40
2016-12-15T13:29:46.440Z,40
2016-12-15T13:30:55.129Z,45
2016-12-15T13:32:03.811Z,45
2016-12-15T13:33:12.500Z,40
2016-12-15T13:34:21.189Z,40
2016-12-15T13:35:29.869Z,40
2016-12-15T13:36:38.867Z,40
2016-12-15T13:37:47.549Z,35
2016-12-15T13:38:56.268Z,35
2016-12-15T13:40:04.951Z,30
2016-12-15T13:41:13.630Z,30
2016-12-15T13:42:22.312Z,25
2016-12-15T13:43:31.000Z,25
2016-12-15T13:44:39.685Z,25
2016-12-15T13:45:48.370Z,25
2016-12-15T13:46:57.057Z,20
2016-12-15T13:48:05.749Z,20
2016-12-15T13:49:14.430Z,20
2016-12-15T13:50:23.109Z,20
2016-12-15T13:51:31.799Z,20
2016-12-15T13:52:40.480Z,15
2016-12-15T13:53:49.159Z,15
2016-12-15T13:54:57.849Z,15
2016-12-15T13:56:06.849Z,15
2016-12-15T13:57:15.541Z,10
2016-12-15T13:58:24.229Z,10
2016-12-15T13:59:32.912Z,10
2016-12-15T14:00:41.593Z,10
2016-12-15T14:01:50.276Z,10
2016-12-15T14:02:58.962Z,10
2016-12-15T14:04:07.652Z,10
2016-12-15T14:05:16.329Z,5
2016-12-15T14:06:25.332Z,5
2016-12-15T14:07:34.035Z,5
2016-12-15T14:08:42.715Z,5
2016-12-15T14:09:51.400Z,5
2016-12-15T14:11:00.083Z,5
2016-12-15T14:12:08.766Z,5
2016-12-15T14:13:17.469Z,5
2016-12-15T14:14:26.151Z,5
2016-12-15T14:15:34.832Z,0
2016-12-15T14:16:43.522Z,0
2016-12-15T14:17:52.204Z,0
2016-12-15T14:19:00.890Z,0
2016-12-15T14:20:09.573Z,0
2016-12-15T14:21:18.266Z,0
2016-12-15T14:22:26.954Z,0
2016-12-15T14:23:35.640Z,0
2016-12-15T14:24:44.352Z,0
2016-12-15T14:25:53.032Z,0
2016-12-15T14:27:01.711Z,0
2016-12-15T14:28:10.396Z,0
2016-12-15T14:29:19.078Z,0
2016-12-15T14:30:27.761Z,0
2016-12-15T14:31:36.444Z,0
2016-12-15T14:32:45.124Z,0
2016-12-15T14:33:53.808Z,0
2016-12-15T14:35:02.810Z,0
2016-12-15T14:36:11.489Z,0
2016-12-15T14:37:20.168Z,0
2016-12-15T14:38:28.847Z,0
2016-12-15T14:39:37.530Z,0
2016-12-15T14:40:46.208Z,0
2016-12-15T14:41:54.891Z,0
2016-12-15T14:43:03.572Z,0
2016-12-15T14:44:12.262Z,0
2016-12-15T14:45:20.943Z,0
2016-12-15T14:46:29.626Z,0
2016-12-15T14:47:38.639Z,0
2016-12-15T14:48:47.318Z,0
2016-12-15T14:49:56.007Z,0
2016-12-15T14:51:04.688Z,0
2016-12-15T14:52:13.375Z,0
2016-12-15T14:53:22.056Z,0
2016-12-15T14:54:30.745Z,0
2016-12-15T14:55:39.429Z,0
2016-12-15T14:56:48.110Z,0
2016-12-15T14:57:56.790Z,0
2016-12-15T14:59:05.476Z,0
2016-12-15T15:00:14.164Z,0
2016-12-15T15:01:22.850Z,0
2016-12-15T15:02:31.539Z,0
2016-12-15T15:03:40.221Z,0
2016-12-15T15:04:48.969Z,0
2016-12-15T15:05:57.654Z,0
2016-12-15T15:07:06.337Z,0
2016-12-15T15:08:15.023Z,0
2016-12-15T15:09:23.706Z,0
2016-12-15T15:10:32.395Z,0
2016-12-15T15:11:41.081Z,0
2016-12-15T15:12:49.766Z,0
2016-12-15T15:13:58.453Z,0
2016-12-15T15:15:07.140Z,0
2016-12-15T15:16:15.825Z,0
2016-12-15T15:17:24.506Z,0
2016-12-15T15:18:33.192Z,0
2016-12-15T15:19:41.876Z,0
2016-12-15T15:20:50.560Z,0
2016-12-15T15:21:59.246Z,0
2016-12-15T15:23:07.930Z,0
2016-12-15T15:24:16.613Z,0
2016-12-15T15:25:25.298Z,0
2016-12-15T15:26:34.296Z,0
2016-12-15T15:27:42.982Z,0
2016-12-15T15:28:51.670Z,0
2016-12-15T15:30:00.348Z,0
2016-12-15T15:31:09.039Z,0
2016-12-15T15:32:17.724Z,0
2016-12-15T15:33:26.409Z,0
2016-12-15T15:34:35.092Z,0
2016-12-15T15:35:43.790Z,0
2016-12-15T15:36:52.469Z,0
2016-12-15T15:38:01.154Z,0
2016-12-15T15:39:09.837Z,0
2016-12-15T15:40:18.521Z,0
2016-12-15T15:41:27.208Z,0
2016-12-15T15:42:35.886Z,0
2016-12-15T15:43:44.567Z,0
2016-12-15T15:44:53.252Z,0
2016-12-15T15:46:01.933Z,0
2016-12-15T15:47:10.617Z,0
2016-12-15T15:48:19.617Z,0
2016-12-15T15:49:28.295Z,0
2016-12-15T15:50:36.975Z,0
2016-12-15T15:51:45.669Z,0
2016-12-15T15:52:54.349Z,0
2016-12-15T15:54:03.033Z,0
2016-12-15T15:55:11.713Z,0
2016-12-15T15:56:20.395Z,0
2016-12-15T15:57:29.077Z,0
2016-12-15T15:58:37.764Z,0
2016-12-15T15:59:46.448Z,0
2016-12-15T16:00:55.130Z,0
2016-12-15T16:02:03.814Z,0
2016-12-15T16:03:12.494Z,0
2016-12-15T16:04:21.187Z,0
2016-12-15T16:05:30.185Z,0
2016-12-15T16:06:38.877Z,0
2016-12-15T16:07:47.570Z,0
2016-12-15T16:08:56.263Z,0
2016-12-15T16:10:04.955Z,0
2016-12-15T16:11:13.638Z,0
2016-12-15T16:12:22.319Z,0
2016-12-15T16:13:31.009Z,0
2016-12-15T16:14:39.690Z,0
2016-12-15T16:15:48.393Z,0
2016-12-15T16:16:57.079Z,0
2016-12-15T16:18:05.763Z,0
2016-12-15T16:19:14.449Z,0
2016-12-15T16:20:23.133Z,0
2016-12-15T16:21:31.838Z,0
2016-12-15T16:22:40.517Z,0
2016-12-15T16:23:49.203Z,0
2016-12-15T16:24:57.883Z,0
2016-12-15T16:26:06.596Z,0
2016-12-15T16:27:15.279Z,0
2016-12-15T16:28:23.988Z,0
2016-12-15T16:29:32.998Z,0
2016-12-15T16:30:41.706Z,0
2016-12-15T16:31:50.388Z,0
2016-12-15T16:32:59.073Z,0
2016-12-15T16:34:07.755Z,0
2016-12-15T16:35:16.757Z,0
2016-12-15T16:36:25.433Z,0
2016-12-15T16:37:34.438Z,0